TAF KVTN
KVTN 090520Z 0906/1006 25011KT P6SM BKN250 FM091100 32013G22KT P6SM FEW200 FM092200 34010KT P6SM BKN120 FM100400 08005KT P6SM OVC021=
METAR KVTN
WC KVTN
WS KVTN
WV KVTN